sensor_id;sensor_type;location;lat;lon;timestamp;pressure;altitude;pressure_sealevel;temperature
20733;BMP180;10527;52.124;5.196;2022-12-18T00:01:36;102664.00;;;8.50
20733;BMP180;10527;52.124;5.196;2022-12-18T00:04:07;102648.00;;;8.40
20733;BMP180;10527;52.124;5.196;2022-12-18T00:06:38;102638.00;;;8.40
20733;BMP180;10527;52.124;5.196;2022-12-18T00:09:06;102641.00;;;8.40
20733;BMP180;10527;52.124;5.196;2022-12-18T00:11:33;102638.00;;;8.40
20733;BMP180;10527;52.124;5.196;2022-12-18T00:14:00;102631.00;;;8.40
20733;BMP180;10527;52.124;5.196;2022-12-18T00:16:29;102627.00;;;8.30
20733;BMP180;10527;52.124;5.196;2022-12-18T00:18:58;102634.00;;;8.30
20733;BMP180;10527;52.124;5.196;2022-12-18T00:21:27;102628.00;;;8.30
20733;BMP180;10527;52.124;5.196;2022-12-18T00:23:54;102627.00;;;8.20
20733;BMP180;10527;52.124;5.196;2022-12-18T00:26:28;102635.00;;;8.20
20733;BMP180;10527;52.124;5.196;2022-12-18T00:29:04;102639.00;;;8.20
20733;BMP180;10527;52.124;5.196;2022-12-18T00:31:46;102642.00;;;8.20
20733;BMP180;10527;52.124;5.196;2022-12-18T00:34:13;102626.00;;;8.20
20733;BMP180;10527;52.124;5.196;2022-12-18T00:36:41;102627.00;;;8.20
20733;BMP180;10527;52.124;5.196;2022-12-18T00:39:10;102623.00;;;8.20
20733;BMP180;10527;52.124;5.196;2022-12-18T00:41:36;102619.00;;;8.10
20733;BMP180;10527;52.124;5.196;2022-12-18T00:44:22;102627.00;;;8.10
20733;BMP180;10527;52.124;5.196;2022-12-18T00:46:49;102622.00;;;8.10
20733;BMP180;10527;52.124;5.196;2022-12-18T00:49:35;102622.00;;;8.10
20733;BMP180;10527;52.124;5.196;2022-12-18T00:52:01;102625.00;;;8.10
20733;BMP180;10527;52.124;5.196;2022-12-18T00:54:28;102618.00;;;8.10
20733;BMP180;10527;52.124;5.196;2022-12-18T00:56:56;102631.00;;;8.10
20733;BMP180;10527;52.124;5.196;2022-12-18T00:59:23;102627.00;;;8.20
20733;BMP180;10527;52.124;5.196;2022-12-18T01:01:50;102621.00;;;8.20
20733;BMP180;10527;52.124;5.196;2022-12-18T01:04:17;102634.00;;;8.20
20733;BMP180;10527;52.124;5.196;2022-12-18T01:06:43;102635.00;;;8.20
20733;BMP180;10527;52.124;5.196;2022-12-18T01:09:10;102631.00;;;8.20
20733;BMP180;10527;52.124;5.196;2022-12-18T01:11:39;102638.00;;;8.20
20733;BMP180;10527;52.124;5.196;2022-12-18T01:14:06;102631.00;;;8.20
20733;BMP180;10527;52.124;5.196;2022-12-18T01:16:35;102632.00;;;8.20
20733;BMP180;10527;52.124;5.196;2022-12-18T01:19:02;102626.00;;;8.20
20733;BMP180;10527;52.124;5.196;2022-12-18T01:21:29;102640.00;;;8.20
20733;BMP180;10527;52.124;5.196;2022-12-18T01:23:57;102640.00;;;8.20
20733;BMP180;10527;52.124;5.196;2022-12-18T01:26:27;102645.00;;;8.20
20733;BMP180;10527;52.124;5.196;2022-12-18T01:28:57;102624.00;;;8.10
20733;BMP180;10527;52.124;5.196;2022-12-18T01:31:31;102621.00;;;8.10
20733;BMP180;10527;52.124;5.196;2022-12-18T01:34:01;102631.00;;;8.10
20733;BMP180;10527;52.124;5.196;2022-12-18T01:36:37;102629.00;;;8.10
20733;BMP180;10527;52.124;5.196;2022-12-18T01:39:10;102642.00;;;8.10
20733;BMP180;10527;52.124;5.196;2022-12-18T01:41:38;102645.00;;;8.00
20733;BMP180;10527;52.124;5.196;2022-12-18T01:47:44;102638.00;;;8.00
20733;BMP180;10527;52.124;5.196;2022-12-18T01:50:44;102642.00;;;7.90
20733;BMP180;10527;52.124;5.196;2022-12-18T01:53:14;102651.00;;;7.90
20733;BMP180;10527;52.124;5.196;2022-12-18T01:55:50;102645.00;;;7.90
20733;BMP180;10527;52.124;5.196;2022-12-18T01:58:21;102655.00;;;7.90
20733;BMP180;10527;52.124;5.196;2022-12-18T02:00:54;102657.00;;;8.00
20733;BMP180;10527;52.124;5.196;2022-12-18T02:03:21;102653.00;;;8.00
20733;BMP180;10527;52.124;5.196;2022-12-18T02:09:06;102650.00;;;7.90
20733;BMP180;10527;52.124;5.196;2022-12-18T02:12:13;102662.00;;;7.80
20733;BMP180;10527;52.124;5.196;2022-12-18T02:17:37;102672.00;;;7.90
20733;BMP180;10527;52.124;5.196;2022-12-18T02:20:25;102680.00;;;7.90
20733;BMP180;10527;52.124;5.196;2022-12-18T02:28:55;102667.00;;;7.90
20733;BMP180;10527;52.124;5.196;2022-12-18T02:31:30;102671.00;;;7.90
20733;BMP180;10527;52.124;5.196;2022-12-18T02:34:03;102673.00;;;7.90
20733;BMP180;10527;52.124;5.196;2022-12-18T02:36:33;102660.00;;;7.90
20733;BMP180;10527;52.124;5.196;2022-12-18T02:39:03;102664.00;;;8.00
20733;BMP180;10527;52.124;5.196;2022-12-18T02:41:36;102665.00;;;8.00
20733;BMP180;10527;52.124;5.196;2022-12-18T02:44:12;102652.00;;;8.00
20733;BMP180;10527;52.124;5.196;2022-12-18T02:46:51;102655.00;;;8.10
20733;BMP180;10527;52.124;5.196;2022-12-18T02:49:40;102655.00;;;8.10
20733;BMP180;10527;52.124;5.196;2022-12-18T02:58:16;102635.00;;;8.00
20733;BMP180;10527;52.124;5.196;2022-12-18T03:01:13;102631.00;;;8.00
20733;BMP180;10527;52.124;5.196;2022-12-18T03:03:54;102627.00;;;8.00
20733;BMP180;10527;52.124;5.196;2022-12-18T03:06:48;102631.00;;;8.00
20733;BMP180;10527;52.124;5.196;2022-12-18T03:09:34;102627.00;;;8.00
20733;BMP180;10527;52.124;5.196;2022-12-18T03:12:15;102623.00;;;8.00
20733;BMP180;10527;52.124;5.196;2022-12-18T03:15:13;102621.00;;;8.00
20733;BMP180;10527;52.124;5.196;2022-12-18T03:18:01;102617.00;;;7.90
20733;BMP180;10527;52.124;5.196;2022-12-18T03:20:32;102609.00;;;7.90
20733;BMP180;10527;52.124;5.196;2022-12-18T03:23:13;102598.00;;;7.90
20733;BMP180;10527;52.124;5.196;2022-12-18T03:25:56;102594.00;;;7.90
20733;BMP180;10527;52.124;5.196;2022-12-18T03:28:38;102595.00;;;7.90
20733;BMP180;10527;52.124;5.196;2022-12-18T03:31:10;102597.00;;;7.90
20733;BMP180;10527;52.124;5.196;2022-12-18T03:33:45;102598.00;;;7.90
20733;BMP180;10527;52.124;5.196;2022-12-18T03:36:14;102595.00;;;7.80
20733;BMP180;10527;52.124;5.196;2022-12-18T03:38:41;102587.00;;;7.80
20733;BMP180;10527;52.124;5.196;2022-12-18T03:41:31;102582.00;;;7.80
20733;BMP180;10527;52.124;5.196;2022-12-18T03:44:17;102588.00;;;7.80
20733;BMP180;10527;52.124;5.196;2022-12-18T03:47:27;102587.00;;;7.70
20733;BMP180;10527;52.124;5.196;2022-12-18T03:52:38;102581.00;;;7.70
20733;BMP180;10527;52.124;5.196;2022-12-18T03:55:07;102576.00;;;7.70
20733;BMP180;10527;52.124;5.196;2022-12-18T03:57:37;102573.00;;;7.60
20733;BMP180;10527;52.124;5.196;2022-12-18T04:00:10;102564.00;;;7.60
20733;BMP180;10527;52.124;5.196;2022-12-18T04:02:44;102564.00;;;7.60
20733;BMP180;10527;52.124;5.196;2022-12-18T04:05:14;102566.00;;;7.60
20733;BMP180;10527;52.124;5.196;2022-12-18T04:07:42;102556.00;;;7.60
20733;BMP180;10527;52.124;5.196;2022-12-18T04:10:14;102553.00;;;7.60
20733;BMP180;10527;52.124;5.196;2022-12-18T04:12:41;102551.00;;;7.50
20733;BMP180;10527;52.124;5.196;2022-12-18T04:15:10;102542.00;;;7.50
20733;BMP180;10527;52.124;5.196;2022-12-18T04:17:49;102532.00;;;7.50
20733;BMP180;10527;52.124;5.196;2022-12-18T04:20:17;102533.00;;;7.40
20733;BMP180;10527;52.124;5.196;2022-12-18T04:22:44;102533.00;;;7.40
20733;BMP180;10527;52.124;5.196;2022-12-18T04:25:12;102537.00;;;7.30
20733;BMP180;10527;52.124;5.196;2022-12-18T04:27:38;102539.00;;;7.30
20733;BMP180;10527;52.124;5.196;2022-12-18T04:30:06;102541.00;;;7.30
20733;BMP180;10527;52.124;5.196;2022-12-18T04:32:34;102542.00;;;7.30
20733;BMP180;10527;52.124;5.196;2022-12-18T04:35:01;102542.00;;;7.30
20733;BMP180;10527;52.124;5.196;2022-12-18T04:37:28;102552.00;;;7.30
20733;BMP180;10527;52.124;5.196;2022-12-18T04:39:55;102563.00;;;7.20
20733;BMP180;10527;52.124;5.196;2022-12-18T04:42:22;102558.00;;;7.30
20733;BMP180;10527;52.124;5.196;2022-12-18T04:44:48;102562.00;;;7.30
20733;BMP180;10527;52.124;5.196;2022-12-18T04:47:16;102570.00;;;7.30
20733;BMP180;10527;52.124;5.196;2022-12-18T04:49:43;102573.00;;;7.30
20733;BMP180;10527;52.124;5.196;2022-12-18T04:52:10;102575.00;;;7.30
20733;BMP180;10527;52.124;5.196;2022-12-18T04:54:36;102579.00;;;7.30
20733;BMP180;10527;52.124;5.196;2022-12-18T04:57:03;102573.00;;;7.30
20733;BMP180;10527;52.124;5.196;2022-12-18T04:59:30;102587.00;;;7.20
20733;BMP180;10527;52.124;5.196;2022-12-18T05:01:57;102593.00;;;7.20
20733;BMP180;10527;52.124;5.196;2022-12-18T05:04:24;102582.00;;;7.20
20733;BMP180;10527;52.124;5.196;2022-12-18T05:06:51;102596.00;;;7.20
20733;BMP180;10527;52.124;5.196;2022-12-18T05:09:17;102588.00;;;7.20
20733;BMP180;10527;52.124;5.196;2022-12-18T05:11:45;102590.00;;;7.20
20733;BMP180;10527;52.124;5.196;2022-12-18T05:14:13;102593.00;;;7.20
20733;BMP180;10527;52.124;5.196;2022-12-18T05:16:40;102593.00;;;7.20
20733;BMP180;10527;52.124;5.196;2022-12-18T05:19:06;102592.00;;;7.10
20733;BMP180;10527;52.124;5.196;2022-12-18T05:21:33;102600.00;;;7.10
20733;BMP180;10527;52.124;5.196;2022-12-18T05:24:00;102595.00;;;7.10
20733;BMP180;10527;52.124;5.196;2022-12-18T05:26:27;102617.00;;;7.10
20733;BMP180;10527;52.124;5.196;2022-12-18T05:28:55;102616.00;;;7.10
20733;BMP180;10527;52.124;5.196;2022-12-18T05:31:24;102619.00;;;7.00
20733;BMP180;10527;52.124;5.196;2022-12-18T05:33:54;102614.00;;;7.00
20733;BMP180;10527;52.124;5.196;2022-12-18T05:36:20;102604.00;;;7.00
20733;BMP180;10527;52.124;5.196;2022-12-18T05:38:48;102605.00;;;7.00
20733;BMP180;10527;52.124;5.196;2022-12-18T05:41:15;102602.00;;;7.00
20733;BMP180;10527;52.124;5.196;2022-12-18T05:43:43;102598.00;;;7.00
20733;BMP180;10527;52.124;5.196;2022-12-18T05:46:16;102595.00;;;7.00
20733;BMP180;10527;52.124;5.196;2022-12-18T05:48:44;102588.00;;;7.00
20733;BMP180;10527;52.124;5.196;2022-12-18T05:51:15;102594.00;;;7.00
20733;BMP180;10527;52.124;5.196;2022-12-18T05:53:43;102594.00;;;7.00
20733;BMP180;10527;52.124;5.196;2022-12-18T05:56:18;102585.00;;;7.00
20733;BMP180;10527;52.124;5.196;2022-12-18T05:58:46;102581.00;;;6.90
20733;BMP180;10527;52.124;5.196;2022-12-18T06:01:21;102582.00;;;7.00
20733;BMP180;10527;52.124;5.196;2022-12-18T06:03:48;102573.00;;;6.90
20733;BMP180;10527;52.124;5.196;2022-12-18T06:06:23;102570.00;;;6.90
20733;BMP180;10527;52.124;5.196;2022-12-18T06:08:51;102561.00;;;6.90
20733;BMP180;10527;52.124;5.196;2022-12-18T06:11:22;102561.00;;;6.90
20733;BMP180;10527;52.124;5.196;2022-12-18T06:13:52;102560.00;;;6.80
20733;BMP180;10527;52.124;5.196;2022-12-18T06:16:25;102559.00;;;6.80
20733;BMP180;10527;52.124;5.196;2022-12-18T06:18:52;102548.00;;;6.80
20733;BMP180;10527;52.124;5.196;2022-12-18T06:21:19;102542.00;;;6.80
20733;BMP180;10527;52.124;5.196;2022-12-18T06:23:46;102552.00;;;6.70
20733;BMP180;10527;52.124;5.196;2022-12-18T06:26:15;102548.00;;;6.70
20733;BMP180;10527;52.124;5.196;2022-12-18T06:28:42;102556.00;;;6.70
20733;BMP180;10527;52.124;5.196;2022-12-18T06:31:11;102568.00;;;6.70
20733;BMP180;10527;52.124;5.196;2022-12-18T06:33:39;102564.00;;;6.70
20733;BMP180;10527;52.124;5.196;2022-12-18T06:36:13;102549.00;;;6.70
20733;BMP180;10527;52.124;5.196;2022-12-18T06:38:42;102535.00;;;6.70
20733;BMP180;10527;52.124;5.196;2022-12-18T06:41:17;102545.00;;;6.70
20733;BMP180;10527;52.124;5.196;2022-12-18T06:43:44;102545.00;;;6.70
20733;BMP180;10527;52.124;5.196;2022-12-18T06:46:12;102545.00;;;6.70
20733;BMP180;10527;52.124;5.196;2022-12-18T06:48:39;102527.00;;;6.70
20733;BMP180;10527;52.124;5.196;2022-12-18T06:51:07;102526.00;;;6.70
20733;BMP180;10527;52.124;5.196;2022-12-18T06:53:34;102517.00;;;6.70
20733;BMP180;10527;52.124;5.196;2022-12-18T06:56:08;102514.00;;;6.70
20733;BMP180;10527;52.124;5.196;2022-12-18T06:58:41;102515.00;;;6.70
20733;BMP180;10527;52.124;5.196;2022-12-18T07:01:11;102508.00;;;6.70
20733;BMP180;10527;52.124;5.196;2022-12-18T07:03:40;102515.00;;;6.60
20733;BMP180;10527;52.124;5.196;2022-12-18T07:06:15;102510.00;;;6.60
20733;BMP180;10527;52.124;5.196;2022-12-18T07:08:43;102503.00;;;6.50
20733;BMP180;10527;52.124;5.196;2022-12-18T07:11:10;102493.00;;;6.50
20733;BMP180;10527;52.124;5.196;2022-12-18T07:13:37;102502.00;;;6.50
20733;BMP180;10527;52.124;5.196;2022-12-18T07:16:10;102494.00;;;6.60
20733;BMP180;10527;52.124;5.196;2022-12-18T07:18:46;102495.00;;;6.60
20733;BMP180;10527;52.124;5.196;2022-12-18T07:21:18;102489.00;;;6.60
20733;BMP180;10527;52.124;5.196;2022-12-18T07:23:45;102492.00;;;6.60
20733;BMP180;10527;52.124;5.196;2022-12-18T07:26:18;102490.00;;;6.50
20733;BMP180;10527;52.124;5.196;2022-12-18T07:28:46;102494.00;;;6.50
20733;BMP180;10527;52.124;5.196;2022-12-18T07:31:20;102491.00;;;6.50
20733;BMP180;10527;52.124;5.196;2022-12-18T07:33:49;102482.00;;;6.50
20733;BMP180;10527;52.124;5.196;2022-12-18T07:36:17;102464.00;;;6.50
20733;BMP180;10527;52.124;5.196;2022-12-18T07:38:47;102468.00;;;6.50
20733;BMP180;10527;52.124;5.196;2022-12-18T07:41:15;102464.00;;;6.50
20733;BMP180;10527;52.124;5.196;2022-12-18T07:43:42;102465.00;;;6.50
20733;BMP180;10527;52.124;5.196;2022-12-18T07:46:13;102456.00;;;6.50
20733;BMP180;10527;52.124;5.196;2022-12-18T07:48:42;102460.00;;;6.50
20733;BMP180;10527;52.124;5.196;2022-12-18T07:51:12;102451.00;;;6.50
20733;BMP180;10527;52.124;5.196;2022-12-18T07:53:40;102451.00;;;6.50
20733;BMP180;10527;52.124;5.196;2022-12-18T07:56:11;102443.00;;;6.50
20733;BMP180;10527;52.124;5.196;2022-12-18T07:58:57;102445.00;;;6.50
20733;BMP180;10527;52.124;5.196;2022-12-18T08:01:25;102437.00;;;6.50
20733;BMP180;10527;52.124;5.196;2022-12-18T08:03:52;102430.00;;;6.50
20733;BMP180;10527;52.124;5.196;2022-12-18T08:06:19;102442.00;;;6.50
20733;BMP180;10527;52.124;5.196;2022-12-18T08:08:55;102428.00;;;6.50
20733;BMP180;10527;52.124;5.196;2022-12-18T08:11:25;102437.00;;;6.50
20733;BMP180;10527;52.124;5.196;2022-12-18T08:13:53;102450.00;;;6.40
20733;BMP180;10527;52.124;5.196;2022-12-18T08:16:21;102449.00;;;6.50
20733;BMP180;10527;52.124;5.196;2022-12-18T08:18:53;102453.00;;;6.50
20733;BMP180;10527;52.124;5.196;2022-12-18T08:21:27;102453.00;;;6.50
20733;BMP180;10527;52.124;5.196;2022-12-18T08:23:59;102472.00;;;6.50
20733;BMP180;10527;52.124;5.196;2022-12-18T08:26:30;102463.00;;;6.50
20733;BMP180;10527;52.124;5.196;2022-12-18T08:28:59;102458.00;;;6.60
20733;BMP180;10527;52.124;5.196;2022-12-18T08:31:28;102455.00;;;6.60
20733;BMP180;10527;52.124;5.196;2022-12-18T08:33:56;102453.00;;;6.60
20733;BMP180;10527;52.124;5.196;2022-12-18T08:36:24;102472.00;;;6.60
20733;BMP180;10527;52.124;5.196;2022-12-18T08:38:53;102469.00;;;6.60
20733;BMP180;10527;52.124;5.196;2022-12-18T08:41:20;102470.00;;;6.60
20733;BMP180;10527;52.124;5.196;2022-12-18T08:43:48;102453.00;;;6.70
20733;BMP180;10527;52.124;5.196;2022-12-18T08:46:40;102452.00;;;6.70
20733;BMP180;10527;52.124;5.196;2022-12-18T08:49:08;102448.00;;;6.70
20733;BMP180;10527;52.124;5.196;2022-12-18T08:51:38;102452.00;;;6.80
20733;BMP180;10527;52.124;5.196;2022-12-18T08:54:07;102441.00;;;6.80
20733;BMP180;10527;52.124;5.196;2022-12-18T08:56:34;102442.00;;;6.80
20733;BMP180;10527;52.124;5.196;2022-12-18T08:59:02;102438.00;;;6.80
20733;BMP180;10527;52.124;5.196;2022-12-18T09:01:29;102438.00;;;6.80
20733;BMP180;10527;52.124;5.196;2022-12-18T09:03:57;102430.00;;;6.90
20733;BMP180;10527;52.124;5.196;2022-12-18T09:06:24;102425.00;;;6.90
20733;BMP180;10527;52.124;5.196;2022-12-18T09:08:53;102436.00;;;6.90
20733;BMP180;10527;52.124;5.196;2022-12-18T09:11:26;102444.00;;;6.90
20733;BMP180;10527;52.124;5.196;2022-12-18T09:13:55;102447.00;;;7.00
20733;BMP180;10527;52.124;5.196;2022-12-18T09:16:25;102451.00;;;7.00
20733;BMP180;10527;52.124;5.196;2022-12-18T09:18:59;102454.00;;;7.00
20733;BMP180;10527;52.124;5.196;2022-12-18T09:21:33;102455.00;;;7.00
20733;BMP180;10527;52.124;5.196;2022-12-18T09:24:05;102445.00;;;7.10
20733;BMP180;10527;52.124;5.196;2022-12-18T09:26:35;102450.00;;;7.10
20733;BMP180;10527;52.124;5.196;2022-12-18T09:29:03;102454.00;;;7.10
20733;BMP180;10527;52.124;5.196;2022-12-18T09:31:30;102446.00;;;7.10
20733;BMP180;10527;52.124;5.196;2022-12-18T09:33:57;102430.00;;;7.10
20733;BMP180;10527;52.124;5.196;2022-12-18T09:36:24;102431.00;;;7.10
20733;BMP180;10527;52.124;5.196;2022-12-18T09:38:51;102424.00;;;7.20
20733;BMP180;10527;52.124;5.196;2022-12-18T09:41:43;102415.00;;;7.20
20733;BMP180;10527;52.124;5.196;2022-12-18T09:44:46;102426.00;;;7.20
20733;BMP180;10527;52.124;5.196;2022-12-18T09:47:36;102433.00;;;7.30
20733;BMP180;10527;52.124;5.196;2022-12-18T09:50:22;102427.00;;;7.30
20733;BMP180;10527;52.124;5.196;2022-12-18T09:52:57;102415.00;;;7.30
20733;BMP180;10527;52.124;5.196;2022-12-18T09:55:33;102423.00;;;7.40
20733;BMP180;10527;52.124;5.196;2022-12-18T10:00:55;102400.00;;;7.40
20733;BMP180;10527;52.124;5.196;2022-12-18T10:03:22;102392.00;;;7.40
20733;BMP180;10527;52.124;5.196;2022-12-18T10:06:18;102398.00;;;7.50
20733;BMP180;10527;52.124;5.196;2022-12-18T10:09:27;102390.00;;;7.40
20733;BMP180;10527;52.124;5.196;2022-12-18T10:12:31;102388.00;;;7.50
20733;BMP180;10527;52.124;5.196;2022-12-18T10:18:17;102415.00;;;7.50
20733;BMP180;10527;52.124;5.196;2022-12-18T10:20:54;102415.00;;;7.50
20733;BMP180;10527;52.124;5.196;2022-12-18T10:23:47;102403.00;;;7.50
20733;BMP180;10527;52.124;5.196;2022-12-18T10:26:17;102401.00;;;7.50
20733;BMP180;10527;52.124;5.196;2022-12-18T10:28:45;102396.00;;;7.60
20733;BMP180;10527;52.124;5.196;2022-12-18T10:31:20;102399.00;;;7.60
20733;BMP180;10527;52.124;5.196;2022-12-18T10:33:51;102399.00;;;7.60
20733;BMP180;10527;52.124;5.196;2022-12-18T10:36:23;102391.00;;;7.70
20733;BMP180;10527;52.124;5.196;2022-12-18T10:38:51;102387.00;;;7.70
20733;BMP180;10527;52.124;5.196;2022-12-18T10:43:48;102374.00;;;7.80
20733;BMP180;10527;52.124;5.196;2022-12-18T10:46:19;102361.00;;;7.80
20733;BMP180;10527;52.124;5.196;2022-12-18T10:54:06;102362.00;;;7.90
20733;BMP180;10527;52.124;5.196;2022-12-18T10:56:39;102360.00;;;8.00
20733;BMP180;10527;52.124;5.196;2022-12-18T10:59:16;102361.00;;;8.00
20733;BMP180;10527;52.124;5.196;2022-12-18T11:01:52;102351.00;;;8.00
20733;BMP180;10527;52.124;5.196;2022-12-18T11:04:28;102345.00;;;8.10
20733;BMP180;10527;52.124;5.196;2022-12-18T11:09:38;102349.00;;;8.10
20733;BMP180;10527;52.124;5.196;2022-12-18T11:12:28;102339.00;;;8.20
20733;BMP180;10527;52.124;5.196;2022-12-18T11:14:58;102333.00;;;8.20
20733;BMP180;10527;52.124;5.196;2022-12-18T11:17:33;102324.00;;;8.20
20733;BMP180;10527;52.124;5.196;2022-12-18T11:20:30;102321.00;;;8.30
20733;BMP180;10527;52.124;5.196;2022-12-18T11:23:04;102314.00;;;8.30
20733;BMP180;10527;52.124;5.196;2022-12-18T11:25:33;102319.00;;;8.30
20733;BMP180;10527;52.124;5.196;2022-12-18T11:31:24;102320.00;;;8.40
20733;BMP180;10527;52.124;5.196;2022-12-18T11:34:14;102315.00;;;8.40
20733;BMP180;10527;52.124;5.196;2022-12-18T11:37:02;102329.00;;;8.50
20733;BMP180;10527;52.124;5.196;2022-12-18T11:39:49;102318.00;;;8.50
20733;BMP180;10527;52.124;5.196;2022-12-18T11:42:34;102321.00;;;8.60
20733;BMP180;10527;52.124;5.196;2022-12-18T11:45:23;102313.00;;;8.60
20733;BMP180;10527;52.124;5.196;2022-12-18T11:48:18;102306.00;;;8.60
20733;BMP180;10527;52.124;5.196;2022-12-18T11:50:55;102304.00;;;8.60
20733;BMP180;10527;52.124;5.196;2022-12-18T11:53:26;102299.00;;;8.60
20733;BMP180;10527;52.124;5.196;2022-12-18T12:05:10;102266.00;;;8.70
20733;BMP180;10527;52.124;5.196;2022-12-18T12:13:42;102244.00;;;8.80
20733;BMP180;10527;52.124;5.196;2022-12-18T12:22:15;102240.00;;;8.90
20733;BMP180;10527;52.124;5.196;2022-12-18T12:25:07;102240.00;;;8.90
20733;BMP180;10527;52.124;5.196;2022-12-18T12:28:09;102246.00;;;9.00
20733;BMP180;10527;52.124;5.196;2022-12-18T12:31:24;102243.00;;;9.00
20733;BMP180;10527;52.124;5.196;2022-12-18T12:39:40;102221.00;;;9.10
20733;BMP180;10527;52.124;5.196;2022-12-18T12:42:38;102219.00;;;9.10
20733;BMP180;10527;52.124;5.196;2022-12-18T12:45:39;102211.00;;;9.10
20733;BMP180;10527;52.124;5.196;2022-12-18T12:48:21;102210.00;;;9.20
20733;BMP180;10527;52.124;5.196;2022-12-18T12:50:50;102197.00;;;9.20
20733;BMP180;10527;52.124;5.196;2022-12-18T12:53:32;102209.00;;;9.20
20733;BMP180;10527;52.124;5.196;2022-12-18T12:56:03;102195.00;;;9.20
20733;BMP180;10527;52.124;5.196;2022-12-18T12:59:01;102206.00;;;9.30
20733;BMP180;10527;52.124;5.196;2022-12-18T13:01:53;102193.00;;;9.30
20733;BMP180;10527;52.124;5.196;2022-12-18T13:04:52;102193.00;;;9.30
20733;BMP180;10527;52.124;5.196;2022-12-18T13:07:41;102202.00;;;9.30
20733;BMP180;10527;52.124;5.196;2022-12-18T13:13:15;102193.00;;;9.40
20733;BMP180;10527;52.124;5.196;2022-12-18T13:16:07;102192.00;;;9.40
20733;BMP180;10527;52.124;5.196;2022-12-18T13:18:35;102189.00;;;9.40
20733;BMP180;10527;52.124;5.196;2022-12-18T13:21:21;102181.00;;;9.40
20733;BMP180;10527;52.124;5.196;2022-12-18T13:23:51;102185.00;;;9.40
20733;BMP180;10527;52.124;5.196;2022-12-18T13:28:57;102164.00;;;9.50
20733;BMP180;10527;52.124;5.196;2022-12-18T13:36:57;102165.00;;;9.50
20733;BMP180;10527;52.124;5.196;2022-12-18T13:39:43;102145.00;;;9.50
20733;BMP180;10527;52.124;5.196;2022-12-18T13:44:58;102136.00;;;9.60
20733;BMP180;10527;52.124;5.196;2022-12-18T13:47:36;102131.00;;;9.60
20733;BMP180;10527;52.124;5.196;2022-12-18T13:50:27;102131.00;;;9.60
20733;BMP180;10527;52.124;5.196;2022-12-18T13:53:04;102120.00;;;9.60
20733;BMP180;10527;52.124;5.196;2022-12-18T13:55:32;102112.00;;;9.60
20733;BMP180;10527;52.124;5.196;2022-12-18T13:58:11;102122.00;;;9.60
20733;BMP180;10527;52.124;5.196;2022-12-18T14:00:42;102113.00;;;9.60
20733;BMP180;10527;52.124;5.196;2022-12-18T14:03:40;102115.00;;;9.60
20733;BMP180;10527;52.124;5.196;2022-12-18T14:06:11;102110.00;;;9.60
20733;BMP180;10527;52.124;5.196;2022-12-18T14:08:43;102109.00;;;9.60
20733;BMP180;10527;52.124;5.196;2022-12-18T14:11:22;102104.00;;;9.70
20733;BMP180;10527;52.124;5.196;2022-12-18T14:13:53;102104.00;;;9.60
20733;BMP180;10527;52.124;5.196;2022-12-18T14:16:20;102106.00;;;9.70
20733;BMP180;10527;52.124;5.196;2022-12-18T14:18:54;102116.00;;;9.70
20733;BMP180;10527;52.124;5.196;2022-12-18T14:21:33;102109.00;;;9.70
20733;BMP180;10527;52.124;5.196;2022-12-18T14:24:19;102106.00;;;9.80
20733;BMP180;10527;52.124;5.196;2022-12-18T14:26:49;102100.00;;;9.80
20733;BMP180;10527;52.124;5.196;2022-12-18T14:29:30;102110.00;;;9.80
20733;BMP180;10527;52.124;5.196;2022-12-18T14:32:14;102087.00;;;9.80
20733;BMP180;10527;52.124;5.196;2022-12-18T14:34:50;102090.00;;;9.80
20733;BMP180;10527;52.124;5.196;2022-12-18T14:37:22;102069.00;;;9.80
20733;BMP180;10527;52.124;5.196;2022-12-18T14:39:59;102074.00;;;9.80
20733;BMP180;10527;52.124;5.196;2022-12-18T14:42:36;102061.00;;;9.80
20733;BMP180;10527;52.124;5.196;2022-12-18T14:45:43;102072.00;;;9.80
20733;BMP180;10527;52.124;5.196;2022-12-18T14:50:39;102072.00;;;9.70
20733;BMP180;10527;52.124;5.196;2022-12-18T14:53:32;102074.00;;;9.70
20733;BMP180;10527;52.124;5.196;2022-12-18T14:56:01;102069.00;;;9.70
20733;BMP180;10527;52.124;5.196;2022-12-18T14:58:28;102058.00;;;9.70
20733;BMP180;10527;52.124;5.196;2022-12-18T15:00:55;102065.00;;;9.70
20733;BMP180;10527;52.124;5.196;2022-12-18T15:03:22;102060.00;;;9.70
20733;BMP180;10527;52.124;5.196;2022-12-18T15:05:50;102059.00;;;9.80
20733;BMP180;10527;52.124;5.196;2022-12-18T15:08:36;102058.00;;;9.80
20733;BMP180;10527;52.124;5.196;2022-12-18T15:11:27;102046.00;;;9.80
20733;BMP180;10527;52.124;5.196;2022-12-18T15:13:54;102047.00;;;9.80
20733;BMP180;10527;52.124;5.196;2022-12-18T15:16:21;102039.00;;;9.80
20733;BMP180;10527;52.124;5.196;2022-12-18T15:18:48;102051.00;;;9.80
20733;BMP180;10527;52.124;5.196;2022-12-18T15:21:20;102040.00;;;9.80
20733;BMP180;10527;52.124;5.196;2022-12-18T15:23:50;102044.00;;;9.80
20733;BMP180;10527;52.124;5.196;2022-12-18T15:26:20;102046.00;;;9.80
20733;BMP180;10527;52.124;5.196;2022-12-18T15:28:56;102038.00;;;9.80
20733;BMP180;10527;52.124;5.196;2022-12-18T15:31:33;102044.00;;;9.80
20733;BMP180;10527;52.124;5.196;2022-12-18T15:34:20;102041.00;;;9.80
20733;BMP180;10527;52.124;5.196;2022-12-18T15:36:47;102035.00;;;9.80
20733;BMP180;10527;52.124;5.196;2022-12-18T15:39:16;102036.00;;;9.80
20733;BMP180;10527;52.124;5.196;2022-12-18T15:41:44;102043.00;;;9.80
20733;BMP180;10527;52.124;5.196;2022-12-18T15:44:31;102035.00;;;9.80
20733;BMP180;10527;52.124;5.196;2022-12-18T15:46:58;102029.00;;;9.80
20733;BMP180;10527;52.124;5.196;2022-12-18T15:49:25;102016.00;;;9.80
20733;BMP180;10527;52.124;5.196;2022-12-18T15:51:57;102025.00;;;9.80
20733;BMP180;10527;52.124;5.196;2022-12-18T15:54:24;102017.00;;;9.80
20733;BMP180;10527;52.124;5.196;2022-12-18T15:57:11;102023.00;;;9.80
20733;BMP180;10527;52.124;5.196;2022-12-18T15:59:53;102013.00;;;9.80
20733;BMP180;10527;52.124;5.196;2022-12-18T16:02:24;102008.00;;;9.80
20733;BMP180;10527;52.124;5.196;2022-12-18T16:04:52;102001.00;;;9.80
20733;BMP180;10527;52.124;5.196;2022-12-18T16:07:20;102003.00;;;9.90
20733;BMP180;10527;52.124;5.196;2022-12-18T16:09:51;101985.00;;;9.90
20733;BMP180;10527;52.124;5.196;2022-12-18T16:12:22;101981.00;;;9.90
20733;BMP180;10527;52.124;5.196;2022-12-18T16:14:50;101983.00;;;9.90